ENST

Sandnessjøen , Stokka Airport

Alstahaug, Norway
METAR ENST 171950Z 16010KT 9999 -SHRASN FEW010CB FEW015 SCT020 BKN035 02/01 Q1003 RMK WIND 300FT 17012KT
Observed Flight Rules
Dec-17 @ 19:50 UTC (an hour ago) Visual Flight Rules
Wind Visibility Clouds Conditions
160° at 10 knots 10,000+ meters
  • Few at 1,000' AGL
  • Few at 1,500' AGL
  • Scattered at 2,000' AGL
  • Broken at 3,500' AGL
  • Light Rain
  • Light Snow
Temperatures Readings
Current 2°C / 36°F
Dewpoint 1°C / 34°F
Humidity 93%
Altimeter 29.62" Hg
Pressure 1003 hPa
Elevation 17
METAR ENST 171950Z 16010KT 9999 -SHRASN FEW010CB FEW015 SCT020 BKN035 02/01 Q1003 RMK WIND 300FT 17012KT
Observed Flight Rules
Dec-17 @ 19:50 UTC
(an hour ago)
VFR
Wind Visibility
160° at 10 knots 10,000+ meters
Clouds
  • Few at 1,000' AGL
  • Few at 1,500' AGL
  • Scattered at 2,000' AGL
  • Broken at 3,500' AGL
Conditions
  • Light Rain
  • Light Snow
Temperature Dewpoint
2°C / 36°F 1°C / 34°F
Humidity Altimeter Pressure
93% 29.62" Hg 1003 hPa